sensor_id;sensor_type;location;lat;lon;timestamp;pressure;altitude;pressure_sealevel;temperature;humidity
61618;BME280;47518;51.776;9.370;2023-04-22T00:02:01;99646.91;;;14.46;52.45
61618;BME280;47518;51.776;9.370;2023-04-22T00:04:27;99640.75;;;14.57;52.68
61618;BME280;47518;51.776;9.370;2023-04-22T00:06:53;99646.88;;;14.53;52.38
61618;BME280;47518;51.776;9.370;2023-04-22T00:09:18;99642.69;;;14.50;52.17
61618;BME280;47518;51.776;9.370;2023-04-22T00:11:43;99646.84;;;14.59;51.45
61618;BME280;47518;51.776;9.370;2023-04-22T00:14:08;99640.94;;;14.63;51.51
61618;BME280;47518;51.776;9.370;2023-04-22T00:16:34;99634.22;;;14.58;51.96
61618;BME280;47518;51.776;9.370;2023-04-22T00:18:59;99639.25;;;14.62;52.38
61618;BME280;47518;51.776;9.370;2023-04-22T00:21:31;99636.38;;;14.50;52.35
61618;BME280;47518;51.776;9.370;2023-04-22T00:23:57;99639.88;;;14.64;52.47
61618;BME280;47518;51.776;9.370;2023-04-22T00:26:23;99644.13;;;14.59;51.98
61618;BME280;47518;51.776;9.370;2023-04-22T00:28:48;99638.50;;;14.48;52.71
61618;BME280;47518;51.776;9.370;2023-04-22T00:31:14;99643.34;;;14.39;52.12
61618;BME280;47518;51.776;9.370;2023-04-22T00:33:39;99640.38;;;14.41;52.27
61618;BME280;47518;51.776;9.370;2023-04-22T00:36:05;99637.84;;;14.46;52.92
61618;BME280;47518;51.776;9.370;2023-04-22T00:38:33;99637.25;;;14.37;53.40
61618;BME280;47518;51.776;9.370;2023-04-22T00:41:02;99644.63;;;14.37;53.22
61618;BME280;47518;51.776;9.370;2023-04-22T00:43:27;99637.72;;;14.27;54.53
61618;BME280;47518;51.776;9.370;2023-04-22T00:45:52;99640.31;;;14.09;55.15
61618;BME280;47518;51.776;9.370;2023-04-22T00:48:18;99644.91;;;14.15;54.54
61618;BME280;47518;51.776;9.370;2023-04-22T00:50:43;99644.97;;;14.02;55.50
61618;BME280;47518;51.776;9.370;2023-04-22T00:53:09;99646.00;;;14.08;55.97
61618;BME280;47518;51.776;9.370;2023-04-22T00:55:37;99638.09;;;13.80;55.69
61618;BME280;47518;51.776;9.370;2023-04-22T00:58:03;99631.75;;;13.86;55.36
61618;BME280;47518;51.776;9.370;2023-04-22T01:00:28;99635.59;;;13.78;55.51
61618;BME280;47518;51.776;9.370;2023-04-22T01:02:54;99635.78;;;13.77;55.69
61618;BME280;47518;51.776;9.370;2023-04-22T01:05:20;99631.41;;;13.42;56.22
61618;BME280;47518;51.776;9.370;2023-04-22T01:07:49;99639.81;;;13.14;57.56
61618;BME280;47518;51.776;9.370;2023-04-22T01:10:15;99639.59;;;13.42;57.61
61618;BME280;47518;51.776;9.370;2023-04-22T01:12:41;99637.28;;;13.59;57.55
61618;BME280;47518;51.776;9.370;2023-04-22T01:15:07;99638.34;;;13.52;57.68
61618;BME280;47518;51.776;9.370;2023-04-22T01:17:33;99648.22;;;13.20;58.72
61618;BME280;47518;51.776;9.370;2023-04-22T01:19:59;99643.38;;;13.15;58.69
61618;BME280;47518;51.776;9.370;2023-04-22T01:22:26;99646.91;;;12.96;59.09
61618;BME280;47518;51.776;9.370;2023-04-22T01:24:55;99650.47;;;12.96;59.75
61618;BME280;47518;51.776;9.370;2023-04-22T01:27:20;99638.53;;;12.91;59.38
61618;BME280;47518;51.776;9.370;2023-04-22T01:29:46;99634.53;;;12.93;59.88
61618;BME280;47518;51.776;9.370;2023-04-22T01:32:12;99630.56;;;13.09;58.88
61618;BME280;47518;51.776;9.370;2023-04-22T01:34:38;99632.66;;;12.74;60.45
61618;BME280;47518;51.776;9.370;2023-04-22T01:37:05;99633.25;;;12.69;61.80
61618;BME280;47518;51.776;9.370;2023-04-22T01:39:31;99636.38;;;12.60;61.78
61618;BME280;47518;51.776;9.370;2023-04-22T01:41:57;99638.22;;;12.46;61.01
61618;BME280;47518;51.776;9.370;2023-04-22T01:44:24;99631.97;;;12.52;62.34
61618;BME280;47518;51.776;9.370;2023-04-22T01:46:49;99641.81;;;12.60;61.57
61618;BME280;47518;51.776;9.370;2023-04-22T01:49:15;99638.47;;;12.51;61.68
61618;BME280;47518;51.776;9.370;2023-04-22T01:51:40;99633.00;;;12.51;62.21
61618;BME280;47518;51.776;9.370;2023-04-22T01:54:05;99636.50;;;12.38;62.24
61618;BME280;47518;51.776;9.370;2023-04-22T01:56:31;99647.28;;;12.53;63.07
61618;BME280;47518;51.776;9.370;2023-04-22T01:58:57;99643.91;;;12.51;62.05
61618;BME280;47518;51.776;9.370;2023-04-22T02:01:22;99648.50;;;12.44;61.98
61618;BME280;47518;51.776;9.370;2023-04-22T02:03:48;99645.72;;;12.31;62.32
61618;BME280;47518;51.776;9.370;2023-04-22T02:06:13;99651.84;;;12.39;61.75
61618;BME280;47518;51.776;9.370;2023-04-22T02:08:38;99630.81;;;12.26;62.38
61618;BME280;47518;51.776;9.370;2023-04-22T02:11:05;99641.44;;;12.15;62.03
61618;BME280;47518;51.776;9.370;2023-04-22T02:13:35;99643.59;;;12.26;62.38
61618;BME280;47518;51.776;9.370;2023-04-22T02:16:01;99638.13;;;12.19;63.80
61618;BME280;47518;51.776;9.370;2023-04-22T02:18:26;99630.84;;;12.33;61.65
61618;BME280;47518;51.776;9.370;2023-04-22T02:20:55;99641.56;;;12.48;62.56
61618;BME280;47518;51.776;9.370;2023-04-22T02:23:20;99638.47;;;12.51;60.90
61618;BME280;47518;51.776;9.370;2023-04-22T02:25:51;99638.66;;;12.56;61.52
61618;BME280;47518;51.776;9.370;2023-04-22T02:28:17;99634.69;;;12.59;61.87
61618;BME280;47518;51.776;9.370;2023-04-22T02:30:44;99644.56;;;12.66;61.86
61618;BME280;47518;51.776;9.370;2023-04-22T02:33:09;99639.94;;;12.53;62.23
61618;BME280;47518;51.776;9.370;2023-04-22T02:35:44;99631.31;;;12.50;60.83
61618;BME280;47518;51.776;9.370;2023-04-22T02:38:10;99625.47;;;12.60;60.58
61618;BME280;47518;51.776;9.370;2023-04-22T02:40:35;99635.53;;;12.72;60.88
61618;BME280;47518;51.776;9.370;2023-04-22T02:43:00;99635.16;;;12.75;59.57
61618;BME280;47518;51.776;9.370;2023-04-22T02:45:29;99643.53;;;12.67;60.77
61618;BME280;47518;51.776;9.370;2023-04-22T02:47:54;99644.38;;;12.74;60.28
61618;BME280;47518;51.776;9.370;2023-04-22T02:50:20;99648.13;;;12.73;60.13
61618;BME280;47518;51.776;9.370;2023-04-22T02:52:45;99647.13;;;12.74;59.61
61618;BME280;47518;51.776;9.370;2023-04-22T02:55:11;99643.34;;;12.89;59.75
61618;BME280;47518;51.776;9.370;2023-04-22T02:57:36;99637.69;;;12.77;59.93
61618;BME280;47518;51.776;9.370;2023-04-22T03:00:02;99639.59;;;13.03;59.68
61618;BME280;47518;51.776;9.370;2023-04-22T03:02:28;99638.94;;;12.88;60.10
61618;BME280;47518;51.776;9.370;2023-04-22T03:04:54;99633.50;;;13.01;58.74
61618;BME280;47518;51.776;9.370;2023-04-22T03:07:20;99637.47;;;13.05;58.80
61618;BME280;47518;51.776;9.370;2023-04-22T03:09:45;99627.63;;;13.10;58.53
61618;BME280;47518;51.776;9.370;2023-04-22T03:12:10;99634.97;;;13.17;58.11
61618;BME280;47518;51.776;9.370;2023-04-22T03:14:36;99634.56;;;13.20;58.06
61618;BME280;47518;51.776;9.370;2023-04-22T03:17:01;99629.94;;;13.40;57.47
61618;BME280;47518;51.776;9.370;2023-04-22T03:19:26;99636.47;;;13.19;57.67
61618;BME280;47518;51.776;9.370;2023-04-22T03:21:52;99628.94;;;13.21;58.18
61618;BME280;47518;51.776;9.370;2023-04-22T03:24:17;99626.41;;;13.26;57.51
61618;BME280;47518;51.776;9.370;2023-04-22T03:26:46;99629.97;;;13.27;58.06
61618;BME280;47518;51.776;9.370;2023-04-22T03:29:11;99630.59;;;13.29;57.62
61618;BME280;47518;51.776;9.370;2023-04-22T03:31:36;99628.91;;;13.34;57.33
61618;BME280;47518;51.776;9.370;2023-04-22T03:34:02;99626.81;;;13.36;57.25
61618;BME280;47518;51.776;9.370;2023-04-22T03:36:27;99629.75;;;13.55;57.49
61618;BME280;47518;51.776;9.370;2023-04-22T03:38:53;99628.03;;;13.67;56.31
61618;BME280;47518;51.776;9.370;2023-04-22T03:41:18;99628.03;;;13.67;56.46
61618;BME280;47518;51.776;9.370;2023-04-22T03:43:44;99632.25;;;13.50;56.48
61618;BME280;47518;51.776;9.370;2023-04-22T03:46:09;99626.16;;;13.41;57.63
61618;BME280;47518;51.776;9.370;2023-04-22T03:48:35;99622.81;;;13.39;56.96
61618;BME280;47518;51.776;9.370;2023-04-22T03:51:01;99631.22;;;13.24;58.36
61618;BME280;47518;51.776;9.370;2023-04-22T03:53:26;99624.09;;;13.36;57.47
61618;BME280;47518;51.776;9.370;2023-04-22T03:55:52;99628.66;;;13.16;59.27
61618;BME280;47518;51.776;9.370;2023-04-22T03:58:18;99628.03;;;13.14;58.70
61618;BME280;47518;51.776;9.370;2023-04-22T04:00:43;99625.13;;;13.09;58.53
61618;BME280;47518;51.776;9.370;2023-04-22T04:03:12;99619.03;;;13.27;58.16
61618;BME280;47518;51.776;9.370;2023-04-22T04:06:10;99620.09;;;13.46;58.32
61618;BME280;47518;51.776;9.370;2023-04-22T04:08:35;99620.53;;;13.23;58.64
61618;BME280;47518;51.776;9.370;2023-04-22T04:11:01;99631.81;;;13.53;58.21
61618;BME280;47518;51.776;9.370;2023-04-22T04:13:26;99626.59;;;13.45;58.88
61618;BME280;47518;51.776;9.370;2023-04-22T04:16:05;99628.50;;;13.44;59.65
61618;BME280;47518;51.776;9.370;2023-04-22T04:18:34;99630.16;;;13.45;60.84
61618;BME280;47518;51.776;9.370;2023-04-22T04:20:59;99627.84;;;13.42;61.08
61618;BME280;47518;51.776;9.370;2023-04-22T04:23:24;99630.56;;;13.09;61.70
61618;BME280;47518;51.776;9.370;2023-04-22T04:25:54;99636.63;;;12.84;62.78
61618;BME280;47518;51.776;9.370;2023-04-22T04:28:20;99636.22;;;13.01;62.41
61618;BME280;47518;51.776;9.370;2023-04-22T04:30:46;99628.84;;;12.81;63.76
61618;BME280;47518;51.776;9.370;2023-04-22T04:33:12;99629.31;;;12.85;64.01
61618;BME280;47518;51.776;9.370;2023-04-22T04:36:09;99632.44;;;12.95;64.05
61618;BME280;47518;51.776;9.370;2023-04-22T04:38:35;99631.19;;;12.98;63.52
61618;BME280;47518;51.776;9.370;2023-04-22T04:41:00;99633.28;;;12.96;64.20
61618;BME280;47518;51.776;9.370;2023-04-22T04:43:25;99624.47;;;13.00;64.10
61618;BME280;47518;51.776;9.370;2023-04-22T04:45:53;99622.56;;;12.94;63.47
61618;BME280;47518;51.776;9.370;2023-04-22T04:48:19;99625.97;;;13.09;64.47
61618;BME280;47518;51.776;9.370;2023-04-22T04:50:44;99626.97;;;12.95;63.09
61618;BME280;47518;51.776;9.370;2023-04-22T04:53:13;99619.66;;;13.02;63.67
61618;BME280;47518;51.776;9.370;2023-04-22T04:55:57;99621.53;;;13.02;63.26
61618;BME280;47518;51.776;9.370;2023-04-22T04:58:22;99619.81;;;12.68;63.73
61618;BME280;47518;51.776;9.370;2023-04-22T05:00:47;99620.47;;;12.83;64.09
61618;BME280;47518;51.776;9.370;2023-04-22T05:03:13;99621.72;;;12.74;64.49
61618;BME280;47518;51.776;9.370;2023-04-22T05:06:04;99620.47;;;12.76;64.53
61618;BME280;47518;51.776;9.370;2023-04-22T05:08:29;99629.31;;;12.85;64.27
61618;BME280;47518;51.776;9.370;2023-04-22T05:10:55;99641.44;;;12.69;64.38
61618;BME280;47518;51.776;9.370;2023-04-22T05:13:20;99632.22;;;12.90;63.39
61618;BME280;47518;51.776;9.370;2023-04-22T05:15:46;99634.34;;;13.01;63.74
61618;BME280;47518;51.776;9.370;2023-04-22T05:18:12;99638.09;;;13.07;63.14
61618;BME280;47518;51.776;9.370;2023-04-22T05:20:37;99642.94;;;13.18;64.45
61618;BME280;47518;51.776;9.370;2023-04-22T05:23:05;99637.13;;;13.21;64.65
61618;BME280;47518;51.776;9.370;2023-04-22T05:25:31;99633.34;;;13.22;64.29
61618;BME280;47518;51.776;9.370;2023-04-22T05:27:56;99634.56;;;13.39;63.82
61618;BME280;47518;51.776;9.370;2023-04-22T05:30:22;99635.59;;;13.65;62.19
61618;BME280;47518;51.776;9.370;2023-04-22T05:32:47;99639.34;;;13.77;62.90
61618;BME280;47518;51.776;9.370;2023-04-22T05:35:13;99636.19;;;13.80;61.32
61618;BME280;47518;51.776;9.370;2023-04-22T05:37:38;99638.06;;;13.93;60.34
61618;BME280;47518;51.776;9.370;2023-04-22T05:40:04;99641.88;;;13.79;62.00
61618;BME280;47518;51.776;9.370;2023-04-22T05:42:29;99627.97;;;13.87;61.37
61618;BME280;47518;51.776;9.370;2023-04-22T05:44:54;99623.47;;;14.12;59.84
61618;BME280;47518;51.776;9.370;2023-04-22T05:47:26;99631.19;;;14.22;59.48
61618;BME280;47518;51.776;9.370;2023-04-22T05:49:51;99624.44;;;14.31;59.02
61618;BME280;47518;51.776;9.370;2023-04-22T05:52:16;99617.00;;;14.51;60.41
61618;BME280;47518;51.776;9.370;2023-04-22T05:54:42;99615.34;;;14.50;59.50
61618;BME280;47518;51.776;9.370;2023-04-22T05:57:08;99614.22;;;14.58;59.99
61618;BME280;47518;51.776;9.370;2023-04-22T05:59:34;99614.09;;;14.78;58.63
61618;BME280;47518;51.776;9.370;2023-04-22T06:01:59;99612.16;;;14.85;57.74
61618;BME280;47518;51.776;9.370;2023-04-22T06:04:25;99599.25;;;14.92;57.70
61618;BME280;47518;51.776;9.370;2023-04-22T06:06:50;99609.72;;;15.02;57.11
61618;BME280;47518;51.776;9.370;2023-04-22T06:09:18;99608.94;;;15.20;56.68
61618;BME280;47518;51.776;9.370;2023-04-22T06:24:44;99609.88;;;14.82;57.83
61618;BME280;47518;51.776;9.370;2023-04-22T06:27:09;99605.16;;;14.96;56.95
61618;BME280;47518;51.776;9.370;2023-04-22T06:29:34;99613.63;;;15.12;57.19
61618;BME280;47518;51.776;9.370;2023-04-22T06:32:00;99612.78;;;15.37;58.00
61618;BME280;47518;51.776;9.370;2023-04-22T06:34:25;99607.06;;;15.20;57.93
61618;BME280;47518;51.776;9.370;2023-04-22T06:36:50;99603.91;;;15.41;57.32
61618;BME280;47518;51.776;9.370;2023-04-22T06:39:17;99601.44;;;15.33;55.29
61618;BME280;47518;51.776;9.370;2023-04-22T06:41:42;99610.13;;;15.05;54.43
61618;BME280;47518;51.776;9.370;2023-04-22T06:44:08;99603.06;;;15.41;54.28
61618;BME280;47518;51.776;9.370;2023-04-22T06:46:34;99603.72;;;15.61;54.63
61618;BME280;47518;51.776;9.370;2023-04-22T06:48:59;99611.19;;;15.72;54.10
61618;BME280;47518;51.776;9.370;2023-04-22T06:51:25;99608.16;;;15.81;52.78
61618;BME280;47518;51.776;9.370;2023-04-22T06:53:50;99596.69;;;15.47;54.18
61618;BME280;47518;51.776;9.370;2023-04-22T06:56:15;99611.31;;;15.59;53.39
61618;BME280;47518;51.776;9.370;2023-04-22T06:58:41;99607.25;;;15.68;53.26
61618;BME280;47518;51.776;9.370;2023-04-22T07:01:06;99615.47;;;15.68;53.27
61618;BME280;47518;51.776;9.370;2023-04-22T07:03:34;99607.47;;;15.67;52.63
61618;BME280;47518;51.776;9.370;2023-04-22T07:06:03;99601.00;;;15.80;51.79
61618;BME280;47518;51.776;9.370;2023-04-22T07:08:29;99595.66;;;15.85;52.87
61618;BME280;47518;51.776;9.370;2023-04-22T07:10:54;99596.75;;;15.84;52.85
61618;BME280;47518;51.776;9.370;2023-04-22T07:13:21;99591.59;;;15.75;52.04
61618;BME280;47518;51.776;9.370;2023-04-22T07:15:47;99594.84;;;15.66;52.40
61618;BME280;47518;51.776;9.370;2023-04-22T07:18:12;99595.75;;;15.96;52.27
61618;BME280;47518;51.776;9.370;2023-04-22T07:20:38;99588.88;;;16.24;52.09
61618;BME280;47518;51.776;9.370;2023-04-22T07:23:03;99594.50;;;16.29;49.87
61618;BME280;47518;51.776;9.370;2023-04-22T07:25:29;99591.16;;;16.27;51.98
61618;BME280;47518;51.776;9.370;2023-04-22T07:27:54;99594.00;;;16.50;49.65
61618;BME280;47518;51.776;9.370;2023-04-22T07:30:20;99587.63;;;16.38;50.47
61618;BME280;47518;51.776;9.370;2023-04-22T07:32:45;99583.53;;;16.29;51.01
61618;BME280;47518;51.776;9.370;2023-04-22T07:35:11;99581.06;;;16.39;49.77
61618;BME280;47518;51.776;9.370;2023-04-22T07:37:36;99582.50;;;16.42;50.59
61618;BME280;47518;51.776;9.370;2023-04-22T07:40:02;99582.06;;;16.45;50.53
61618;BME280;47518;51.776;9.370;2023-04-22T07:42:27;99581.81;;;16.76;49.65
61618;BME280;47518;51.776;9.370;2023-04-22T07:44:53;99580.16;;;16.75;49.30
61618;BME280;47518;51.776;9.370;2023-04-22T07:47:18;99586.13;;;16.72;49.93
61618;BME280;47518;51.776;9.370;2023-04-22T07:49:43;99580.06;;;16.82;49.45
61618;BME280;47518;51.776;9.370;2023-04-22T07:52:09;99585.00;;;17.03;48.40
61618;BME280;47518;51.776;9.370;2023-04-22T07:54:35;99571.53;;;17.25;48.71
61618;BME280;47518;51.776;9.370;2023-04-22T07:57:00;99570.66;;;17.25;48.75
61618;BME280;47518;51.776;9.370;2023-04-22T07:59:26;99569.25;;;17.45;48.15
61618;BME280;47518;51.776;9.370;2023-04-22T08:01:51;99572.00;;;17.34;47.72
61618;BME280;47518;51.776;9.370;2023-04-22T08:04:17;99572.00;;;17.69;48.00
61618;BME280;47518;51.776;9.370;2023-04-22T08:06:42;99565.06;;;17.78;47.71
61618;BME280;47518;51.776;9.370;2023-04-22T08:09:07;99556.81;;;18.30;45.85
61618;BME280;47518;51.776;9.370;2023-04-22T08:11:34;99566.19;;;18.46;45.22
61618;BME280;47518;51.776;9.370;2023-04-22T08:14:00;99560.28;;;18.54;45.64
61618;BME280;47518;51.776;9.370;2023-04-22T08:16:25;99563.38;;;18.29;46.56
61618;BME280;47518;51.776;9.370;2023-04-22T08:18:50;99560.38;;;18.30;45.94
61618;BME280;47518;51.776;9.370;2023-04-22T08:21:16;99552.56;;;18.39;45.68
61618;BME280;47518;51.776;9.370;2023-04-22T08:23:41;99546.78;;;18.52;45.31
61618;BME280;47518;51.776;9.370;2023-04-22T08:26:08;99546.28;;;18.55;46.21
61618;BME280;47518;51.776;9.370;2023-04-22T08:28:36;99541.75;;;18.78;45.75
61618;BME280;47518;51.776;9.370;2023-04-22T08:31:01;99541.59;;;18.56;45.05
61618;BME280;47518;51.776;9.370;2023-04-22T08:33:26;99541.81;;;18.66;44.90
61618;BME280;47518;51.776;9.370;2023-04-22T08:36:08;99537.16;;;19.17;45.22
61618;BME280;47518;51.776;9.370;2023-04-22T08:38:33;99535.50;;;19.16;44.50
61618;BME280;47518;51.776;9.370;2023-04-22T08:40:59;99542.72;;;19.56;43.49
61618;BME280;47518;51.776;9.370;2023-04-22T08:43:25;99540.19;;;19.54;44.64
61618;BME280;47518;51.776;9.370;2023-04-22T08:45:54;99536.91;;;19.35;43.79
61618;BME280;47518;51.776;9.370;2023-04-22T08:48:19;99534.13;;;19.35;47.09
61618;BME280;47518;51.776;9.370;2023-04-22T08:50:46;99533.31;;;19.35;44.29
61618;BME280;47518;51.776;9.370;2023-04-22T08:53:13;99523.78;;;19.09;43.93
61618;BME280;47518;51.776;9.370;2023-04-22T08:55:41;99527.63;;;19.24;44.54
61618;BME280;47518;51.776;9.370;2023-04-22T08:58:09;99529.78;;;19.78;44.01
61618;BME280;47518;51.776;9.370;2023-04-22T09:00:35;99526.03;;;20.06;45.89
61618;BME280;47518;51.776;9.370;2023-04-22T09:03:01;99531.59;;;20.60;42.45
61618;BME280;47518;51.776;9.370;2023-04-22T09:08:41;99522.94;;;20.78;41.25
61618;BME280;47518;51.776;9.370;2023-04-22T09:11:07;99526.13;;;20.38;41.40
61618;BME280;47518;51.776;9.370;2023-04-22T09:13:33;99519.91;;;20.80;41.11
61618;BME280;47518;51.776;9.370;2023-04-22T09:15:58;99522.28;;;20.66;42.20
61618;BME280;47518;51.776;9.370;2023-04-22T09:18:24;99519.09;;;20.52;41.87
61618;BME280;47518;51.776;9.370;2023-04-22T09:20:54;99519.16;;;20.08;42.90
61618;BME280;47518;51.776;9.370;2023-04-22T09:23:23;99518.59;;;20.87;41.52
61618;BME280;47518;51.776;9.370;2023-04-22T09:25:48;99515.56;;;20.57;42.01
61618;BME280;47518;51.776;9.370;2023-04-22T09:28:17;99519.50;;;20.66;41.49
61618;BME280;47518;51.776;9.370;2023-04-22T09:30:49;99507.94;;;20.69;42.43
61618;BME280;47518;51.776;9.370;2023-04-22T09:33:14;99513.63;;;21.21;41.26
61618;BME280;47518;51.776;9.370;2023-04-22T09:38:36;99505.03;;;20.54;42.21
61618;BME280;47518;51.776;9.370;2023-04-22T09:41:13;99502.22;;;20.81;42.21
61618;BME280;47518;51.776;9.370;2023-04-22T09:43:38;99505.38;;;20.94;42.49
61618;BME280;47518;51.776;9.370;2023-04-22T09:46:05;99507.25;;;20.84;42.30
61618;BME280;47518;51.776;9.370;2023-04-22T09:48:41;99500.94;;;20.93;42.64
61618;BME280;47518;51.776;9.370;2023-04-22T09:51:14;99508.97;;;20.95;42.73
61618;BME280;47518;51.776;9.370;2023-04-22T09:53:41;99506.38;;;21.15;41.28
61618;BME280;47518;51.776;9.370;2023-04-22T09:56:06;99504.59;;;20.67;41.63
61618;BME280;47518;51.776;9.370;2023-04-22T09:58:32;99504.50;;;20.84;42.49
61618;BME280;47518;51.776;9.370;2023-04-22T10:01:02;99493.63;;;21.09;42.33
61618;BME280;47518;51.776;9.370;2023-04-22T10:03:27;99491.34;;;21.01;41.47
61618;BME280;47518;51.776;9.370;2023-04-22T10:05:53;99498.59;;;21.07;41.76
61618;BME280;47518;51.776;9.370;2023-04-22T10:08:31;99499.38;;;21.03;41.60
61618;BME280;47518;51.776;9.370;2023-04-22T10:10:57;99497.88;;;21.22;40.87
61618;BME280;47518;51.776;9.370;2023-04-22T10:13:22;99490.59;;;21.48;40.85
61618;BME280;47518;51.776;9.370;2023-04-22T10:15:50;99497.63;;;21.71;41.09
61618;BME280;47518;51.776;9.370;2023-04-22T10:18:21;99484.16;;;21.90;40.18
61618;BME280;47518;51.776;9.370;2023-04-22T10:20:47;99483.44;;;22.20;38.50
61618;BME280;47518;51.776;9.370;2023-04-22T10:23:17;99481.00;;;22.38;38.56
61618;BME280;47518;51.776;9.370;2023-04-22T10:25:46;99487.19;;;21.88;38.68
61618;BME280;47518;51.776;9.370;2023-04-22T10:28:14;99477.34;;;22.18;37.87
61618;BME280;47518;51.776;9.370;2023-04-22T10:30:40;99466.25;;;22.23;37.70
61618;BME280;47518;51.776;9.370;2023-04-22T10:36:18;99470.19;;;22.37;37.14
61618;BME280;47518;51.776;9.370;2023-04-22T10:41:32;99469.31;;;23.38;36.25
61618;BME280;47518;51.776;9.370;2023-04-22T10:43:59;99452.34;;;23.75;35.13
61618;BME280;47518;51.776;9.370;2023-04-22T10:47:01;99476.06;;;22.91;35.80
61618;BME280;47518;51.776;9.370;2023-04-22T10:49:29;99461.59;;;22.38;37.09
61618;BME280;47518;51.776;9.370;2023-04-22T10:51:56;99458.56;;;22.76;36.41
61618;BME280;47518;51.776;9.370;2023-04-22T10:57:11;99459.69;;;22.49;35.90
61618;BME280;47518;51.776;9.370;2023-04-22T11:02:28;99459.03;;;23.59;34.51
61618;BME280;47518;51.776;9.370;2023-04-22T11:05:18;99460.03;;;24.77;31.52
61618;BME280;47518;51.776;9.370;2023-04-22T11:07:45;99452.56;;;24.38;32.87
61618;BME280;47518;51.776;9.370;2023-04-22T11:10:10;99445.66;;;24.99;31.45
61618;BME280;47518;51.776;9.370;2023-04-22T11:12:42;99438.81;;;25.20;31.99
61618;BME280;47518;51.776;9.370;2023-04-22T11:15:09;99444.91;;;25.46;31.40
61618;BME280;47518;51.776;9.370;2023-04-22T11:17:36;99439.78;;;23.88;32.18
61618;BME280;47518;51.776;9.370;2023-04-22T11:20:02;99433.00;;;24.09;32.61
61618;BME280;47518;51.776;9.370;2023-04-22T11:22:34;99432.13;;;23.65;32.96
61618;BME280;47518;51.776;9.370;2023-04-22T11:25:01;99439.03;;;24.22;32.09
61618;BME280;47518;51.776;9.370;2023-04-22T11:27:28;99440.09;;;24.31;33.21
61618;BME280;47518;51.776;9.370;2023-04-22T11:32:56;99437.63;;;23.70;33.42
61618;BME280;47518;51.776;9.370;2023-04-22T11:38:08;99419.47;;;24.76;32.56
61618;BME280;47518;51.776;9.370;2023-04-22T11:40:35;99429.06;;;23.61;34.22
61618;BME280;47518;51.776;9.370;2023-04-22T11:43:03;99425.84;;;23.18;34.78
61618;BME280;47518;51.776;9.370;2023-04-22T11:45:31;99426.69;;;23.14;34.53
61618;BME280;47518;51.776;9.370;2023-04-22T11:47:57;99428.59;;;23.28;34.66
61618;BME280;47518;51.776;9.370;2023-04-22T11:50:27;99436.97;;;22.62;35.84
61618;BME280;47518;51.776;9.370;2023-04-22T11:55:36;99428.66;;;22.62;35.95
61618;BME280;47518;51.776;9.370;2023-04-22T11:58:09;99425.63;;;22.89;34.71
61618;BME280;47518;51.776;9.370;2023-04-22T12:00:41;99417.25;;;23.15;34.15
61618;BME280;47518;51.776;9.370;2023-04-22T12:03:12;99409.38;;;23.52;33.95
61618;BME280;47518;51.776;9.370;2023-04-22T12:08:33;99406.44;;;23.93;33.42
61618;BME280;47518;51.776;9.370;2023-04-22T12:11:03;99408.97;;;23.84;32.71
61618;BME280;47518;51.776;9.370;2023-04-22T12:18:50;99404.00;;;24.26;32.02
61618;BME280;47518;51.776;9.370;2023-04-22T12:21:18;99393.75;;;23.77;32.96
61618;BME280;47518;51.776;9.370;2023-04-22T12:23:48;99397.94;;;23.69;32.99
61618;BME280;47518;51.776;9.370;2023-04-22T12:26:15;99394.78;;;23.91;32.59
61618;BME280;47518;51.776;9.370;2023-04-22T12:28:42;99392.69;;;24.56;31.46
61618;BME280;47518;51.776;9.370;2023-04-22T12:31:08;99381.69;;;24.41;31.68
61618;BME280;47518;51.776;9.370;2023-04-22T12:33:35;99390.69;;;24.62;30.62
61618;BME280;47518;51.776;9.370;2023-04-22T12:36:02;99386.47;;;24.35;31.98
61618;BME280;47518;51.776;9.370;2023-04-22T12:38:28;99386.34;;;24.51;31.55
61618;BME280;47518;51.776;9.370;2023-04-22T12:40:53;99386.28;;;24.16;31.75
61618;BME280;47518;51.776;9.370;2023-04-22T12:43:20;99403.59;;;24.08;30.55
61618;BME280;47518;51.776;9.370;2023-04-22T12:45:46;99388.56;;;23.60;31.11
61618;BME280;47518;51.776;9.370;2023-04-22T12:48:11;99378.19;;;23.81;30.31
61618;BME280;47518;51.776;9.370;2023-04-22T12:50:37;99389.53;;;23.20;31.33
61618;BME280;47518;51.776;9.370;2023-04-22T12:53:02;99375.16;;;23.03;31.87
61618;BME280;47518;51.776;9.370;2023-04-22T12:55:28;99379.03;;;23.02;31.65
61618;BME280;47518;51.776;9.370;2023-04-22T12:57:54;99375.41;;;23.11;31.44
61618;BME280;47518;51.776;9.370;2023-04-22T13:00:19;99367.13;;;22.96;31.32
61618;BME280;47518;51.776;9.370;2023-04-22T13:02:46;99368.94;;;23.36;31.41
61618;BME280;47518;51.776;9.370;2023-04-22T13:05:11;99373.19;;;23.13;32.20
61618;BME280;47518;51.776;9.370;2023-04-22T13:07:38;99365.47;;;23.70;30.88
61618;BME280;47518;51.776;9.370;2023-04-22T13:10:05;99366.66;;;23.58;31.20
61618;BME280;47518;51.776;9.370;2023-04-22T13:12:30;99367.84;;;23.97;30.96
61618;BME280;47518;51.776;9.370;2023-04-22T13:14:56;99366.38;;;23.50;31.10
61618;BME280;47518;51.776;9.370;2023-04-22T13:17:21;99373.41;;;23.32;31.50
61618;BME280;47518;51.776;9.370;2023-04-22T13:19:47;99357.88;;;23.31;31.23
61618;BME280;47518;51.776;9.370;2023-04-22T13:22:12;99367.69;;;22.98;32.01
61618;BME280;47518;51.776;9.370;2023-04-22T13:24:38;99366.81;;;23.18;32.38
61618;BME280;47518;51.776;9.370;2023-04-22T13:27:04;99355.72;;;23.13;32.89
61618;BME280;47518;51.776;9.370;2023-04-22T13:29:31;99348.84;;;22.90;32.88
61618;BME280;47518;51.776;9.370;2023-04-22T13:31:58;99353.50;;;23.10;32.23
61618;BME280;47518;51.776;9.370;2023-04-22T13:34:23;99331.88;;;23.17;31.14
61618;BME280;47518;51.776;9.370;2023-04-22T13:36:48;99333.34;;;22.94;31.55
61618;BME280;47518;51.776;9.370;2023-04-22T13:39:14;99334.81;;;23.41;32.05
61618;BME280;47518;51.776;9.370;2023-04-22T13:41:40;99339.28;;;23.26;32.27
61618;BME280;47518;51.776;9.370;2023-04-22T13:44:05;99343.78;;;23.17;32.64
61618;BME280;47518;51.776;9.370;2023-04-22T13:46:31;99331.66;;;22.98;32.16